Burns, Kansas
Current Conditions -  °F | °C
As of 6:15 PM on Friday 24 Oct 2014 (Local Time) from KEWK Reporting Station
Clear Clear  
Wind Chill: 75°   Ceiling: Unl
Heat Index: 75°   Visibility: 10mi
Dew Point: 61°   Wind: 8mph
Humidity: 61%   Direction: 220°SW
Pressure: 30.01"   Gusts: NA
Location:  38.09°N, 96.89°W
Report Text: KEWK 242315Z AUTO 22007KT 10SM CLR 24/16 A3001 RMK AO1
Loading
Personal Weather Stations






























Interactive Weather Map
Tropical Storm Tracking
New forecast layout! Learn more

10-Day Weather Forecast

Advertisements
Track Severe Weather on mobile